sensor_id;sensor_type;location;lat;lon;timestamp;P1;durP1;ratioP1;P2;durP2;ratioP2
33760;SDS011;20084;47.912;19.044;2023-02-15T00:00:20;16.48;;;10.80;;
33760;SDS011;20084;47.912;19.044;2023-02-15T00:02:46;12.48;;;8.77;;
33760;SDS011;20084;47.912;19.044;2023-02-15T00:05:12;10.80;;;6.80;;
33760;SDS011;20084;47.912;19.044;2023-02-15T00:07:38;8.52;;;6.15;;
33760;SDS011;20084;47.912;19.044;2023-02-15T00:10:03;9.30;;;5.03;;
33760;SDS011;20084;47.912;19.044;2023-02-15T00:12:30;9.50;;;5.88;;
33760;SDS011;20084;47.912;19.044;2023-02-15T00:14:56;11.60;;;7.95;;
33760;SDS011;20084;47.912;19.044;2023-02-15T00:17:21;12.32;;;9.10;;
33760;SDS011;20084;47.912;19.044;2023-02-15T00:19:47;11.68;;;7.40;;
33760;SDS011;20084;47.912;19.044;2023-02-15T00:22:12;10.20;;;6.72;;
33760;SDS011;20084;47.912;19.044;2023-02-15T00:24:38;9.70;;;6.40;;
33760;SDS011;20084;47.912;19.044;2023-02-15T00:27:04;14.10;;;9.32;;
33760;SDS011;20084;47.912;19.044;2023-02-15T00:29:29;15.07;;;9.82;;
33760;SDS011;20084;47.912;19.044;2023-02-15T00:31:55;12.02;;;7.60;;
33760;SDS011;20084;47.912;19.044;2023-02-15T00:34:22;14.50;;;8.35;;
33760;SDS011;20084;47.912;19.044;2023-02-15T00:36:49;16.20;;;8.95;;
33760;SDS011;20084;47.912;19.044;2023-02-15T00:39:15;12.00;;;7.95;;
33760;SDS011;20084;47.912;19.044;2023-02-15T00:41:42;14.20;;;8.68;;
33760;SDS011;20084;47.912;19.044;2023-02-15T00:44:08;12.80;;;7.82;;
33760;SDS011;20084;47.912;19.044;2023-02-15T00:46:34;13.70;;;8.90;;
33760;SDS011;20084;47.912;19.044;2023-02-15T00:48:59;13.93;;;8.57;;
33760;SDS011;20084;47.912;19.044;2023-02-15T00:51:25;11.27;;;6.80;;
33760;SDS011;20084;47.912;19.044;2023-02-15T00:53:51;8.18;;;6.05;;
33760;SDS011;20084;47.912;19.044;2023-02-15T00:56:17;11.05;;;7.57;;
33760;SDS011;20084;47.912;19.044;2023-02-15T00:58:43;12.90;;;8.82;;
33760;SDS011;20084;47.912;19.044;2023-02-15T01:01:11;17.25;;;10.50;;
33760;SDS011;20084;47.912;19.044;2023-02-15T01:03:41;17.00;;;11.30;;
33760;SDS011;20084;47.912;19.044;2023-02-15T01:06:08;26.35;;;15.93;;
33760;SDS011;20084;47.912;19.044;2023-02-15T01:08:34;21.42;;;12.50;;
33760;SDS011;20084;47.912;19.044;2023-02-15T01:11:06;19.70;;;13.55;;
33760;SDS011;20084;47.912;19.044;2023-02-15T01:13:33;22.85;;;14.30;;
33760;SDS011;20084;47.912;19.044;2023-02-15T01:16:00;19.38;;;11.80;;
33760;SDS011;20084;47.912;19.044;2023-02-15T01:18:27;35.25;;;17.70;;
33760;SDS011;20084;47.912;19.044;2023-02-15T01:20:53;26.63;;;15.35;;
33760;SDS011;20084;47.912;19.044;2023-02-15T01:23:18;29.13;;;15.27;;
33760;SDS011;20084;47.912;19.044;2023-02-15T01:25:45;24.35;;;13.48;;
33760;SDS011;20084;47.912;19.044;2023-02-15T01:28:10;12.43;;;7.07;;
33760;SDS011;20084;47.912;19.044;2023-02-15T01:30:36;10.80;;;6.38;;
33760;SDS011;20084;47.912;19.044;2023-02-15T01:33:02;6.57;;;4.28;;
33760;SDS011;20084;47.912;19.044;2023-02-15T01:35:28;5.35;;;3.95;;
33760;SDS011;20084;47.912;19.044;2023-02-15T01:37:55;6.70;;;3.88;;
33760;SDS011;20084;47.912;19.044;2023-02-15T01:40:21;5.47;;;4.45;;
33760;SDS011;20084;47.912;19.044;2023-02-15T01:42:54;7.10;;;4.80;;
33760;SDS011;20084;47.912;19.044;2023-02-15T01:45:29;7.47;;;4.80;;
33760;SDS011;20084;47.912;19.044;2023-02-15T01:50:54;11.45;;;6.90;;
33760;SDS011;20084;47.912;19.044;2023-02-15T01:53:31;10.82;;;7.57;;
33760;SDS011;20084;47.912;19.044;2023-02-15T01:56:03;13.07;;;6.47;;
33760;SDS011;20084;47.912;19.044;2023-02-15T01:58:33;8.98;;;6.18;;
33760;SDS011;20084;47.912;19.044;2023-02-15T02:01:00;12.10;;;6.50;;
33760;SDS011;20084;47.912;19.044;2023-02-15T02:04:13;12.98;;;6.65;;
33760;SDS011;20084;47.912;19.044;2023-02-15T02:06:29;10.82;;;7.50;;
33760;SDS011;20084;47.912;19.044;2023-02-15T02:08:57;11.88;;;7.57;;
33760;SDS011;20084;47.912;19.044;2023-02-15T02:11:23;12.10;;;7.07;;
33760;SDS011;20084;47.912;19.044;2023-02-15T02:13:49;7.22;;;4.68;;
33760;SDS011;20084;47.912;19.044;2023-02-15T02:16:19;6.65;;;4.40;;
33760;SDS011;20084;47.912;19.044;2023-02-15T02:38:28;5.25;;;4.03;;
33760;SDS011;20084;47.912;19.044;2023-02-15T02:41:12;5.15;;;3.70;;
33760;SDS011;20084;47.912;19.044;2023-02-15T02:43:47;6.22;;;3.92;;
33760;SDS011;20084;47.912;19.044;2023-02-15T02:46:25;5.03;;;3.90;;
33760;SDS011;20084;47.912;19.044;2023-02-15T02:48:59;5.97;;;4.60;;
33760;SDS011;20084;47.912;19.044;2023-02-15T02:51:26;7.47;;;5.03;;
33760;SDS011;20084;47.912;19.044;2023-02-15T02:53:56;7.57;;;5.00;;
33760;SDS011;20084;47.912;19.044;2023-02-15T02:58:59;10.07;;;6.30;;
33760;SDS011;20084;47.912;19.044;2023-02-15T03:01:32;8.10;;;5.18;;
33760;SDS011;20084;47.912;19.044;2023-02-15T03:04:13;10.35;;;5.25;;
33760;SDS011;20084;47.912;19.044;2023-02-15T03:09:24;8.95;;;5.93;;
33760;SDS011;20084;47.912;19.044;2023-02-15T03:12:16;9.95;;;6.00;;
33760;SDS011;20084;47.912;19.044;2023-02-15T03:14:46;8.45;;;6.25;;
33760;SDS011;20084;47.912;19.044;2023-02-15T03:17:16;12.00;;;7.15;;
33760;SDS011;20084;47.912;19.044;2023-02-15T03:19:43;10.15;;;6.10;;
33760;SDS011;20084;47.912;19.044;2023-02-15T03:24:47;10.63;;;7.20;;
33760;SDS011;20084;47.912;19.044;2023-02-15T03:27:27;10.90;;;7.63;;
33760;SDS011;20084;47.912;19.044;2023-02-15T03:29:58;7.25;;;5.47;;
33760;SDS011;20084;47.912;19.044;2023-02-15T03:32:26;7.88;;;5.28;;
33760;SDS011;20084;47.912;19.044;2023-02-15T03:34:54;5.47;;;3.90;;
33760;SDS011;20084;47.912;19.044;2023-02-15T03:39:54;7.63;;;4.93;;
33760;SDS011;20084;47.912;19.044;2023-02-15T03:42:43;6.13;;;3.80;;
33760;SDS011;20084;47.912;19.044;2023-02-15T03:45:15;8.70;;;5.90;;
33760;SDS011;20084;47.912;19.044;2023-02-15T03:47:46;10.57;;;5.78;;
33760;SDS011;20084;47.912;19.044;2023-02-15T03:50:26;10.90;;;8.05;;
33760;SDS011;20084;47.912;19.044;2023-02-15T03:53:14;15.32;;;10.70;;
33760;SDS011;20084;47.912;19.044;2023-02-15T03:55:45;16.05;;;10.73;;
33760;SDS011;20084;47.912;19.044;2023-02-15T03:58:12;17.45;;;9.93;;
33760;SDS011;20084;47.912;19.044;2023-02-15T04:01:00;20.60;;;12.48;;
33760;SDS011;20084;47.912;19.044;2023-02-15T04:03:55;33.33;;;20.02;;
33760;SDS011;20084;47.912;19.044;2023-02-15T04:06:25;25.05;;;15.55;;
33760;SDS011;20084;47.912;19.044;2023-02-15T04:08:51;31.48;;;19.38;;
33760;SDS011;20084;47.912;19.044;2023-02-15T04:14:00;31.92;;;18.35;;
33760;SDS011;20084;47.912;19.044;2023-02-15T04:16:46;34.88;;;20.85;;
33760;SDS011;20084;47.912;19.044;2023-02-15T04:19:12;48.67;;;28.05;;
33760;SDS011;20084;47.912;19.044;2023-02-15T04:21:56;69.40;;;38.05;;
33760;SDS011;20084;47.912;19.044;2023-02-15T04:24:40;37.75;;;20.90;;
33760;SDS011;20084;47.912;19.044;2023-02-15T04:27:24;40.60;;;19.35;;
33760;SDS011;20084;47.912;19.044;2023-02-15T04:29:50;72.28;;;34.05;;
33760;SDS011;20084;47.912;19.044;2023-02-15T04:32:15;41.40;;;19.50;;
33760;SDS011;20084;47.912;19.044;2023-02-15T04:34:42;90.43;;;40.60;;
33760;SDS011;20084;47.912;19.044;2023-02-15T04:37:07;73.90;;;34.83;;
33760;SDS011;20084;47.912;19.044;2023-02-15T04:39:33;73.05;;;33.33;;
33760;SDS011;20084;47.912;19.044;2023-02-15T04:41:59;60.83;;;28.48;;
33760;SDS011;20084;47.912;19.044;2023-02-15T04:44:24;69.30;;;33.40;;
33760;SDS011;20084;47.912;19.044;2023-02-15T04:46:50;89.07;;;41.08;;
33760;SDS011;20084;47.912;19.044;2023-02-15T04:49:16;74.00;;;34.22;;
33760;SDS011;20084;47.912;19.044;2023-02-15T04:51:41;65.50;;;32.92;;
33760;SDS011;20084;47.912;19.044;2023-02-15T04:54:07;76.43;;;35.35;;
33760;SDS011;20084;47.912;19.044;2023-02-15T04:56:33;36.50;;;21.55;;
33760;SDS011;20084;47.912;19.044;2023-02-15T04:58:59;59.78;;;30.00;;
33760;SDS011;20084;47.912;19.044;2023-02-15T05:01:25;55.30;;;28.23;;
33760;SDS011;20084;47.912;19.044;2023-02-15T05:03:51;68.68;;;33.33;;
33760;SDS011;20084;47.912;19.044;2023-02-15T05:06:17;62.28;;;29.75;;
33760;SDS011;20084;47.912;19.044;2023-02-15T05:08:43;62.53;;;32.00;;
33760;SDS011;20084;47.912;19.044;2023-02-15T05:11:08;24.67;;;13.60;;
33760;SDS011;20084;47.912;19.044;2023-02-15T05:13:34;42.90;;;21.42;;
33760;SDS011;20084;47.912;19.044;2023-02-15T05:16:00;46.85;;;23.65;;
33760;SDS011;20084;47.912;19.044;2023-02-15T05:18:25;22.63;;;14.07;;
33760;SDS011;20084;47.912;19.044;2023-02-15T05:20:51;23.77;;;14.98;;
33760;SDS011;20084;47.912;19.044;2023-02-15T05:23:16;18.90;;;11.00;;
33760;SDS011;20084;47.912;19.044;2023-02-15T05:25:46;25.55;;;14.57;;
33760;SDS011;20084;47.912;19.044;2023-02-15T05:28:31;19.50;;;12.35;;
33760;SDS011;20084;47.912;19.044;2023-02-15T05:33:34;14.80;;;9.55;;
33760;SDS011;20084;47.912;19.044;2023-02-15T05:36:00;13.57;;;9.55;;
33760;SDS011;20084;47.912;19.044;2023-02-15T05:38:27;15.10;;;9.93;;
33760;SDS011;20084;47.912;19.044;2023-02-15T05:40:53;16.85;;;10.63;;
33760;SDS011;20084;47.912;19.044;2023-02-15T05:43:19;20.15;;;12.50;;
33760;SDS011;20084;47.912;19.044;2023-02-15T05:45:45;24.45;;;14.70;;
33760;SDS011;20084;47.912;19.044;2023-02-15T05:48:12;38.72;;;22.83;;
33760;SDS011;20084;47.912;19.044;2023-02-15T05:50:37;53.45;;;30.90;;
33760;SDS011;20084;47.912;19.044;2023-02-15T05:53:03;66.10;;;35.45;;
33760;SDS011;20084;47.912;19.044;2023-02-15T05:55:29;51.17;;;27.23;;
33760;SDS011;20084;47.912;19.044;2023-02-15T05:57:54;21.35;;;13.32;;
33760;SDS011;20084;47.912;19.044;2023-02-15T06:00:20;45.72;;;24.80;;
33760;SDS011;20084;47.912;19.044;2023-02-15T06:02:46;68.85;;;37.15;;
33760;SDS011;20084;47.912;19.044;2023-02-15T06:05:11;60.00;;;34.17;;
33760;SDS011;20084;47.912;19.044;2023-02-15T06:07:37;32.95;;;19.75;;
33760;SDS011;20084;47.912;19.044;2023-02-15T06:10:03;20.65;;;12.73;;
33760;SDS011;20084;47.912;19.044;2023-02-15T06:12:30;13.02;;;8.65;;
33760;SDS011;20084;47.912;19.044;2023-02-15T06:14:55;19.65;;;10.43;;
33760;SDS011;20084;47.912;19.044;2023-02-15T06:17:21;17.02;;;10.27;;
33760;SDS011;20084;47.912;19.044;2023-02-15T06:19:47;28.88;;;17.15;;
33760;SDS011;20084;47.912;19.044;2023-02-15T06:22:12;40.92;;;23.73;;
33760;SDS011;20084;47.912;19.044;2023-02-15T06:24:39;34.72;;;19.92;;
33760;SDS011;20084;47.912;19.044;2023-02-15T06:27:07;37.38;;;21.45;;
33760;SDS011;20084;47.912;19.044;2023-02-15T06:29:34;48.58;;;28.25;;
33760;SDS011;20084;47.912;19.044;2023-02-15T06:31:59;63.10;;;35.38;;
33760;SDS011;20084;47.912;19.044;2023-02-15T06:34:25;76.38;;;41.15;;
33760;SDS011;20084;47.912;19.044;2023-02-15T06:36:51;67.50;;;36.35;;
33760;SDS011;20084;47.912;19.044;2023-02-15T06:39:16;62.60;;;36.15;;
33760;SDS011;20084;47.912;19.044;2023-02-15T06:41:42;24.10;;;15.18;;
33760;SDS011;20084;47.912;19.044;2023-02-15T06:44:08;41.65;;;24.75;;
33760;SDS011;20084;47.912;19.044;2023-02-15T06:46:33;50.45;;;28.85;;
33760;SDS011;20084;47.912;19.044;2023-02-15T06:48:59;59.05;;;28.15;;
33760;SDS011;20084;47.912;19.044;2023-02-15T06:51:25;38.72;;;21.25;;
33760;SDS011;20084;47.912;19.044;2023-02-15T06:53:51;36.08;;;20.75;;
33760;SDS011;20084;47.912;19.044;2023-02-15T06:56:16;42.25;;;24.15;;
33760;SDS011;20084;47.912;19.044;2023-02-15T06:58:42;36.97;;;24.48;;
33760;SDS011;20084;47.912;19.044;2023-02-15T07:01:10;36.90;;;21.27;;
33760;SDS011;20084;47.912;19.044;2023-02-15T07:03:36;36.95;;;22.40;;
33760;SDS011;20084;47.912;19.044;2023-02-15T07:06:02;37.95;;;23.83;;
33760;SDS011;20084;47.912;19.044;2023-02-15T07:08:33;38.28;;;23.17;;
33760;SDS011;20084;47.912;19.044;2023-02-15T07:10:59;30.40;;;19.50;;
33760;SDS011;20084;47.912;19.044;2023-02-15T07:13:44;34.80;;;21.48;;
33760;SDS011;20084;47.912;19.044;2023-02-15T07:16:10;35.22;;;21.88;;
33760;SDS011;20084;47.912;19.044;2023-02-15T07:18:36;32.38;;;20.90;;
33760;SDS011;20084;47.912;19.044;2023-02-15T07:21:02;33.28;;;20.38;;
33760;SDS011;20084;47.912;19.044;2023-02-15T07:23:28;32.38;;;21.35;;
33760;SDS011;20084;47.912;19.044;2023-02-15T07:25:57;38.45;;;24.25;;
33760;SDS011;20084;47.912;19.044;2023-02-15T07:28:24;37.58;;;22.48;;
33760;SDS011;20084;47.912;19.044;2023-02-15T07:30:50;38.90;;;26.38;;
33760;SDS011;20084;47.912;19.044;2023-02-15T07:33:16;46.00;;;30.52;;
33760;SDS011;20084;47.912;19.044;2023-02-15T07:35:55;42.28;;;28.45;;
33760;SDS011;20084;47.912;19.044;2023-02-15T07:40:50;45.90;;;28.73;;
33760;SDS011;20084;47.912;19.044;2023-02-15T07:43:16;42.13;;;27.85;;
33760;SDS011;20084;47.912;19.044;2023-02-15T07:45:42;44.75;;;30.15;;
33760;SDS011;20084;47.912;19.044;2023-02-15T07:48:08;42.90;;;28.17;;
33760;SDS011;20084;47.912;19.044;2023-02-15T07:50:34;40.72;;;25.83;;
33760;SDS011;20084;47.912;19.044;2023-02-15T07:53:02;38.55;;;26.92;;
33760;SDS011;20084;47.912;19.044;2023-02-15T07:55:28;36.38;;;25.30;;
33760;SDS011;20084;47.912;19.044;2023-02-15T07:57:54;34.80;;;24.88;;
33760;SDS011;20084;47.912;19.044;2023-02-15T08:00:20;36.38;;;25.23;;
33760;SDS011;20084;47.912;19.044;2023-02-15T08:02:56;32.20;;;23.20;;
33760;SDS011;20084;47.912;19.044;2023-02-15T08:05:40;32.40;;;22.95;;
33760;SDS011;20084;47.912;19.044;2023-02-15T08:08:08;30.33;;;21.33;;
33760;SDS011;20084;47.912;19.044;2023-02-15T08:10:57;23.50;;;16.95;;
33760;SDS011;20084;47.912;19.044;2023-02-15T08:13:45;25.27;;;18.77;;
33760;SDS011;20084;47.912;19.044;2023-02-15T08:18:52;23.48;;;17.63;;
33760;SDS011;20084;47.912;19.044;2023-02-15T08:21:18;24.85;;;16.48;;
33760;SDS011;20084;47.912;19.044;2023-02-15T08:23:44;19.83;;;15.40;;
33760;SDS011;20084;47.912;19.044;2023-02-15T08:26:10;20.38;;;14.98;;
33760;SDS011;20084;47.912;19.044;2023-02-15T08:28:36;19.02;;;14.48;;
33760;SDS011;20084;47.912;19.044;2023-02-15T08:31:05;20.33;;;14.70;;
33760;SDS011;20084;47.912;19.044;2023-02-15T08:33:32;22.83;;;15.30;;
33760;SDS011;20084;47.912;19.044;2023-02-15T08:36:02;20.50;;;15.10;;
33760;SDS011;20084;47.912;19.044;2023-02-15T08:38:32;21.88;;;15.88;;
33760;SDS011;20084;47.912;19.044;2023-02-15T08:41:08;21.50;;;15.07;;
33760;SDS011;20084;47.912;19.044;2023-02-15T08:43:34;24.67;;;15.88;;
33760;SDS011;20084;47.912;19.044;2023-02-15T08:46:00;22.05;;;15.40;;
33760;SDS011;20084;47.912;19.044;2023-02-15T08:48:25;22.35;;;15.80;;
33760;SDS011;20084;47.912;19.044;2023-02-15T08:50:51;21.98;;;15.73;;
33760;SDS011;20084;47.912;19.044;2023-02-15T08:53:16;23.10;;;15.15;;
33760;SDS011;20084;47.912;19.044;2023-02-15T08:55:46;20.90;;;15.57;;
33760;SDS011;20084;47.912;19.044;2023-02-15T08:58:22;21.00;;;16.17;;
33760;SDS011;20084;47.912;19.044;2023-02-15T09:00:47;25.20;;;18.80;;
33760;SDS011;20084;47.912;19.044;2023-02-15T09:03:13;26.85;;;19.38;;
33760;SDS011;20084;47.912;19.044;2023-02-15T09:05:39;30.55;;;20.58;;
33760;SDS011;20084;47.912;19.044;2023-02-15T09:08:04;28.73;;;19.63;;
33760;SDS011;20084;47.912;19.044;2023-02-15T09:10:30;28.90;;;21.73;;
33760;SDS011;20084;47.912;19.044;2023-02-15T09:12:56;29.08;;;21.55;;
33760;SDS011;20084;47.912;19.044;2023-02-15T09:15:21;31.63;;;21.30;;
33760;SDS011;20084;47.912;19.044;2023-02-15T09:17:47;26.95;;;19.48;;
33760;SDS011;20084;47.912;19.044;2023-02-15T09:20:13;28.17;;;18.23;;
33760;SDS011;20084;47.912;19.044;2023-02-15T09:22:38;30.80;;;17.50;;
33760;SDS011;20084;47.912;19.044;2023-02-15T09:25:04;22.58;;;17.15;;
33760;SDS011;20084;47.912;19.044;2023-02-15T09:27:30;24.55;;;17.92;;
33760;SDS011;20084;47.912;19.044;2023-02-15T09:29:55;32.55;;;22.55;;
33760;SDS011;20084;47.912;19.044;2023-02-15T09:32:21;23.52;;;16.45;;
33760;SDS011;20084;47.912;19.044;2023-02-15T09:34:47;23.45;;;17.65;;
33760;SDS011;20084;47.912;19.044;2023-02-15T09:37:13;29.52;;;21.77;;
33760;SDS011;20084;47.912;19.044;2023-02-15T09:39:39;26.23;;;20.45;;
33760;SDS011;20084;47.912;19.044;2023-02-15T09:42:15;19.13;;;13.13;;
33760;SDS011;20084;47.912;19.044;2023-02-15T09:50:18;24.10;;;19.30;;
33760;SDS011;20084;47.912;19.044;2023-02-15T10:04:39;24.45;;;19.48;;
33760;SDS011;20084;47.912;19.044;2023-02-15T10:07:11;52.45;;;36.25;;
33760;SDS011;20084;47.912;19.044;2023-02-15T10:15:03;20.73;;;15.68;;
33760;SDS011;20084;47.912;19.044;2023-02-15T10:25:55;17.73;;;12.25;;
33760;SDS011;20084;47.912;19.044;2023-02-15T10:28:39;16.70;;;13.18;;
33760;SDS011;20084;47.912;19.044;2023-02-15T10:31:24;15.93;;;11.65;;
33760;SDS011;20084;47.912;19.044;2023-02-15T10:34:39;16.00;;;11.88;;
33760;SDS011;20084;47.912;19.044;2023-02-15T10:42:32;12.60;;;9.98;;
33760;SDS011;20084;47.912;19.044;2023-02-15T10:53:04;15.00;;;11.03;;
33760;SDS011;20084;47.912;19.044;2023-02-15T10:55:50;14.02;;;10.82;;
33760;SDS011;20084;47.912;19.044;2023-02-15T11:01:16;14.73;;;11.10;;
33760;SDS011;20084;47.912;19.044;2023-02-15T11:06:35;13.45;;;10.27;;
33760;SDS011;20084;47.912;19.044;2023-02-15T11:09:09;14.15;;;11.45;;
33760;SDS011;20084;47.912;19.044;2023-02-15T11:11:38;13.73;;;11.18;;
33760;SDS011;20084;47.912;19.044;2023-02-15T11:14:18;15.73;;;11.73;;
33760;SDS011;20084;47.912;19.044;2023-02-15T11:16:52;14.35;;;10.05;;
33760;SDS011;20084;47.912;19.044;2023-02-15T11:21:53;14.07;;;10.85;;
33760;SDS011;20084;47.912;19.044;2023-02-15T11:24:25;19.17;;;11.73;;
33760;SDS011;20084;47.912;19.044;2023-02-15T11:27:14;39.40;;;28.67;;
33760;SDS011;20084;47.912;19.044;2023-02-15T11:29:58;17.50;;;13.48;;
33760;SDS011;20084;47.912;19.044;2023-02-15T11:32:33;48.03;;;36.33;;
33760;SDS011;20084;47.912;19.044;2023-02-15T11:40:26;16.10;;;11.55;;
33760;SDS011;20084;47.912;19.044;2023-02-15T11:43:00;15.38;;;11.45;;
33760;SDS011;20084;47.912;19.044;2023-02-15T11:45:31;15.75;;;11.43;;
33760;SDS011;20084;47.912;19.044;2023-02-15T11:47:59;15.85;;;11.95;;
33760;SDS011;20084;47.912;19.044;2023-02-15T11:50:27;16.70;;;11.23;;
33760;SDS011;20084;47.912;19.044;2023-02-15T11:52:56;15.10;;;11.52;;
33760;SDS011;20084;47.912;19.044;2023-02-15T11:55:25;23.23;;;13.05;;
33760;SDS011;20084;47.912;19.044;2023-02-15T12:00:31;15.02;;;11.45;;
33760;SDS011;20084;47.912;19.044;2023-02-15T12:03:12;14.73;;;11.07;;
33760;SDS011;20084;47.912;19.044;2023-02-15T12:06:03;14.77;;;11.45;;
33760;SDS011;20084;47.912;19.044;2023-02-15T12:08:40;15.32;;;11.23;;
33760;SDS011;20084;47.912;19.044;2023-02-15T12:11:12;13.10;;;10.75;;
33760;SDS011;20084;47.912;19.044;2023-02-15T12:13:54;18.10;;;14.13;;
33760;SDS011;20084;47.912;19.044;2023-02-15T12:16:24;17.73;;;12.70;;
33760;SDS011;20084;47.912;19.044;2023-02-15T12:18:53;13.73;;;11.25;;
33760;SDS011;20084;47.912;19.044;2023-02-15T12:21:29;15.60;;;13.20;;
33760;SDS011;20084;47.912;19.044;2023-02-15T12:24:01;15.00;;;12.15;;
33760;SDS011;20084;47.912;19.044;2023-02-15T12:26:34;21.08;;;16.90;;
33760;SDS011;20084;47.912;19.044;2023-02-15T12:29:06;55.65;;;45.50;;
33760;SDS011;20084;47.912;19.044;2023-02-15T12:31:39;38.97;;;33.47;;
33760;SDS011;20084;47.912;19.044;2023-02-15T12:34:12;18.20;;;15.45;;
33760;SDS011;20084;47.912;19.044;2023-02-15T12:36:42;19.35;;;14.43;;
33760;SDS011;20084;47.912;19.044;2023-02-15T12:41:37;16.88;;;12.52;;
33760;SDS011;20084;47.912;19.044;2023-02-15T12:49:43;16.75;;;12.38;;
33760;SDS011;20084;47.912;19.044;2023-02-15T12:54:47;20.00;;;13.55;;
33760;SDS011;20084;47.912;19.044;2023-02-15T12:57:24;15.32;;;12.23;;
33760;SDS011;20084;47.912;19.044;2023-02-15T13:00:03;16.20;;;12.93;;
33760;SDS011;20084;47.912;19.044;2023-02-15T13:02:51;15.20;;;11.45;;
33760;SDS011;20084;47.912;19.044;2023-02-15T13:05:34;19.75;;;13.88;;
33760;SDS011;20084;47.912;19.044;2023-02-15T13:10:56;15.57;;;12.50;;
33760;SDS011;20084;47.912;19.044;2023-02-15T13:13:24;14.75;;;11.10;;
33760;SDS011;20084;47.912;19.044;2023-02-15T13:15:52;18.90;;;16.48;;
33760;SDS011;20084;47.912;19.044;2023-02-15T13:20:55;19.40;;;14.45;;
33760;SDS011;20084;47.912;19.044;2023-02-15T13:25:55;13.02;;;11.52;;
33760;SDS011;20084;47.912;19.044;2023-02-15T13:28:32;15.95;;;12.65;;
33760;SDS011;20084;47.912;19.044;2023-02-15T13:31:15;17.50;;;14.18;;
33760;SDS011;20084;47.912;19.044;2023-02-15T13:33:45;35.08;;;24.75;;
33760;SDS011;20084;47.912;19.044;2023-02-15T13:39:13;20.02;;;14.70;;
33760;SDS011;20084;47.912;19.044;2023-02-15T13:53:27;15.70;;;12.20;;
33760;SDS011;20084;47.912;19.044;2023-02-15T14:04:01;27.55;;;11.57;;
33760;SDS011;20084;47.912;19.044;2023-02-15T14:23:33;18.15;;;12.60;;
33760;SDS011;20084;47.912;19.044;2023-02-15T14:26:21;24.73;;;21.52;;
33760;SDS011;20084;47.912;19.044;2023-02-15T14:31:43;17.67;;;12.38;;
33760;SDS011;20084;47.912;19.044;2023-02-15T14:34:23;15.43;;;11.85;;
33760;SDS011;20084;47.912;19.044;2023-02-15T14:36:52;19.58;;;12.25;;
33760;SDS011;20084;47.912;19.044;2023-02-15T14:39:26;22.15;;;12.77;;
33760;SDS011;20084;47.912;19.044;2023-02-15T14:45:24;16.13;;;12.40;;
33760;SDS011;20084;47.912;19.044;2023-02-15T14:48:12;14.65;;;11.88;;
33760;SDS011;20084;47.912;19.044;2023-02-15T14:50:46;29.85;;;23.92;;
33760;SDS011;20084;47.912;19.044;2023-02-15T14:53:17;23.73;;;17.10;;
33760;SDS011;20084;47.912;19.044;2023-02-15T15:04:06;14.98;;;13.20;;
33760;SDS011;20084;47.912;19.044;2023-02-15T15:06:35;13.60;;;12.23;;
33760;SDS011;20084;47.912;19.044;2023-02-15T15:11:51;14.00;;;12.48;;
33760;SDS011;20084;47.912;19.044;2023-02-15T15:17:00;13.95;;;12.55;;
33760;SDS011;20084;47.912;19.044;2023-02-15T15:22:23;15.60;;;12.60;;
33760;SDS011;20084;47.912;19.044;2023-02-15T15:24:51;14.18;;;12.68;;
33760;SDS011;20084;47.912;19.044;2023-02-15T15:44:04;14.75;;;13.13;;
33760;SDS011;20084;47.912;19.044;2023-02-15T15:49:21;17.52;;;14.85;;
33760;SDS011;20084;47.912;19.044;2023-02-15T15:51:49;20.55;;;14.82;;
33760;SDS011;20084;47.912;19.044;2023-02-15T15:54:17;23.67;;;16.02;;
33760;SDS011;20084;47.912;19.044;2023-02-15T15:56:49;20.08;;;14.80;;
33760;SDS011;20084;47.912;19.044;2023-02-15T15:59:31;17.60;;;14.88;;
33760;SDS011;20084;47.912;19.044;2023-02-15T16:02:05;20.92;;;14.88;;
33760;SDS011;20084;47.912;19.044;2023-02-15T16:04:32;18.15;;;14.65;;
33760;SDS011;20084;47.912;19.044;2023-02-15T16:09:54;20.17;;;16.35;;
33760;SDS011;20084;47.912;19.044;2023-02-15T16:12:32;19.77;;;14.98;;
33760;SDS011;20084;47.912;19.044;2023-02-15T16:18:01;16.67;;;13.18;;
33760;SDS011;20084;47.912;19.044;2023-02-15T16:20:31;19.40;;;13.90;;
33760;SDS011;20084;47.912;19.044;2023-02-15T16:28:23;16.08;;;12.40;;
33760;SDS011;20084;47.912;19.044;2023-02-15T16:31:04;15.50;;;12.55;;
33760;SDS011;20084;47.912;19.044;2023-02-15T16:33:39;16.42;;;12.98;;
33760;SDS011;20084;47.912;19.044;2023-02-15T16:36:10;19.75;;;12.77;;
33760;SDS011;20084;47.912;19.044;2023-02-15T16:41:14;12.38;;;10.13;;
33760;SDS011;20084;47.912;19.044;2023-02-15T16:43:42;18.88;;;9.90;;
33760;SDS011;20084;47.912;19.044;2023-02-15T16:46:11;12.57;;;10.18;;
33760;SDS011;20084;47.912;19.044;2023-02-15T16:48:49;16.40;;;10.82;;
33760;SDS011;20084;47.912;19.044;2023-02-15T16:51:20;12.70;;;8.27;;
33760;SDS011;20084;47.912;19.044;2023-02-15T16:53:48;11.98;;;8.88;;
33760;SDS011;20084;47.912;19.044;2023-02-15T16:56:15;13.48;;;9.40;;
33760;SDS011;20084;47.912;19.044;2023-02-15T17:01:29;12.75;;;9.80;;
33760;SDS011;20084;47.912;19.044;2023-02-15T17:07:05;12.93;;;9.85;;
33760;SDS011;20084;47.912;19.044;2023-02-15T17:09:44;11.73;;;9.60;;
33760;SDS011;20084;47.912;19.044;2023-02-15T17:17:58;12.57;;;9.95;;
33760;SDS011;20084;47.912;19.044;2023-02-15T17:20:26;16.42;;;10.18;;
33760;SDS011;20084;47.912;19.044;2023-02-15T17:22:53;13.82;;;9.85;;
33760;SDS011;20084;47.912;19.044;2023-02-15T17:25:21;14.57;;;10.23;;
33760;SDS011;20084;47.912;19.044;2023-02-15T17:27:54;12.38;;;9.57;;
33760;SDS011;20084;47.912;19.044;2023-02-15T17:30:27;14.40;;;10.23;;
33760;SDS011;20084;47.912;19.044;2023-02-15T17:32:58;14.23;;;10.60;;
33760;SDS011;20084;47.912;19.044;2023-02-15T17:35:27;15.15;;;9.82;;
33760;SDS011;20084;47.912;19.044;2023-02-15T17:40:44;18.08;;;13.30;;
33760;SDS011;20084;47.912;19.044;2023-02-15T17:43:11;17.63;;;12.32;;
33760;SDS011;20084;47.912;19.044;2023-02-15T17:45:43;22.35;;;13.95;;
33760;SDS011;20084;47.912;19.044;2023-02-15T17:48:19;19.45;;;15.63;;
33760;SDS011;20084;47.912;19.044;2023-02-15T17:50:46;16.48;;;11.77;;
33760;SDS011;20084;47.912;19.044;2023-02-15T17:53:12;13.30;;;10.98;;
33760;SDS011;20084;47.912;19.044;2023-02-15T17:55:41;11.88;;;9.15;;
33760;SDS011;20084;47.912;19.044;2023-02-15T17:58:17;12.20;;;9.23;;
33760;SDS011;20084;47.912;19.044;2023-02-15T18:00:45;14.65;;;11.13;;
33760;SDS011;20084;47.912;19.044;2023-02-15T18:03:42;14.27;;;8.35;;
33760;SDS011;20084;47.912;19.044;2023-02-15T18:06:29;11.02;;;8.15;;
33760;SDS011;20084;47.912;19.044;2023-02-15T18:09:18;10.85;;;7.57;;
33760;SDS011;20084;47.912;19.044;2023-02-15T18:12:25;10.23;;;8.05;;
33760;SDS011;20084;47.912;19.044;2023-02-15T18:14:52;10.43;;;8.13;;
33760;SDS011;20084;47.912;19.044;2023-02-15T18:17:38;13.00;;;8.77;;
33760;SDS011;20084;47.912;19.044;2023-02-15T18:20:20;16.65;;;11.40;;
33760;SDS011;20084;47.912;19.044;2023-02-15T18:22:48;14.07;;;9.98;;
33760;SDS011;20084;47.912;19.044;2023-02-15T18:25:17;14.38;;;10.05;;